sensor_id;sensor_type;location;lat;lon;timestamp;temperature;humidity
8463;DHT22;4268;52.506;13.462;2024-03-08T00:01:47;2.80;99.40
8463;DHT22;4268;52.506;13.462;2024-03-08T00:04:13;2.90;99.70
8463;DHT22;4268;52.506;13.462;2024-03-08T00:06:40;2.80;99.60
8463;DHT22;4268;52.506;13.462;2024-03-08T00:09:06;2.70;99.70
8463;DHT22;4268;52.506;13.462;2024-03-08T00:11:35;2.80;99.80
8463;DHT22;4268;52.506;13.462;2024-03-08T00:14:01;2.70;99.90
8463;DHT22;4268;52.506;13.462;2024-03-08T00:16:27;2.70;99.90
8463;DHT22;4268;52.506;13.462;2024-03-08T00:18:53;2.60;99.90
8463;DHT22;4268;52.506;13.462;2024-03-08T00:21:18;2.60;99.90
8463;DHT22;4268;52.506;13.462;2024-03-08T00:23:43;2.60;99.90
8463;DHT22;4268;52.506;13.462;2024-03-08T00:26:09;2.60;99.90
8463;DHT22;4268;52.506;13.462;2024-03-08T00:28:35;2.60;99.90
8463;DHT22;4268;52.506;13.462;2024-03-08T00:31:00;2.60;99.90
8463;DHT22;4268;52.506;13.462;2024-03-08T00:33:26;2.60;99.90
8463;DHT22;4268;52.506;13.462;2024-03-08T00:35:53;2.60;99.90
8463;DHT22;4268;52.506;13.462;2024-03-08T00:38:19;2.60;99.90
8463;DHT22;4268;52.506;13.462;2024-03-08T00:40:44;2.60;99.90
8463;DHT22;4268;52.506;13.462;2024-03-08T00:43:10;2.60;99.90
8463;DHT22;4268;52.506;13.462;2024-03-08T00:45:36;2.50;99.90
8463;DHT22;4268;52.506;13.462;2024-03-08T00:48:02;2.50;99.90
8463;DHT22;4268;52.506;13.462;2024-03-08T00:50:28;2.60;99.90
8463;DHT22;4268;52.506;13.462;2024-03-08T00:52:54;2.60;99.90
8463;DHT22;4268;52.506;13.462;2024-03-08T00:55:19;2.60;99.90
8463;DHT22;4268;52.506;13.462;2024-03-08T00:57:45;2.60;99.90
8463;DHT22;4268;52.506;13.462;2024-03-08T01:00:11;2.70;99.90
8463;DHT22;4268;52.506;13.462;2024-03-08T01:02:38;2.60;99.90
8463;DHT22;4268;52.506;13.462;2024-03-08T01:05:04;2.60;99.90
8463;DHT22;4268;52.506;13.462;2024-03-08T01:07:34;2.60;99.90
8463;DHT22;4268;52.506;13.462;2024-03-08T01:10:00;2.60;99.90
8463;DHT22;4268;52.506;13.462;2024-03-08T01:12:26;2.50;99.90
8463;DHT22;4268;52.506;13.462;2024-03-08T01:14:52;2.50;99.90
8463;DHT22;4268;52.506;13.462;2024-03-08T01:17:17;2.50;99.90
8463;DHT22;4268;52.506;13.462;2024-03-08T01:19:43;2.50;99.90
8463;DHT22;4268;52.506;13.462;2024-03-08T01:22:10;2.50;99.90
8463;DHT22;4268;52.506;13.462;2024-03-08T01:24:36;2.50;99.90
8463;DHT22;4268;52.506;13.462;2024-03-08T01:27:02;2.50;99.90
8463;DHT22;4268;52.506;13.462;2024-03-08T01:29:28;2.50;99.90
8463;DHT22;4268;52.506;13.462;2024-03-08T01:31:58;2.50;99.90
8463;DHT22;4268;52.506;13.462;2024-03-08T01:34:25;2.40;99.90
8463;DHT22;4268;52.506;13.462;2024-03-08T01:36:51;2.40;99.90
8463;DHT22;4268;52.506;13.462;2024-03-08T01:39:16;2.40;99.90
8463;DHT22;4268;52.506;13.462;2024-03-08T01:41:42;2.40;99.90
8463;DHT22;4268;52.506;13.462;2024-03-08T01:44:08;2.40;99.90
8463;DHT22;4268;52.506;13.462;2024-03-08T01:46:35;2.40;99.90
8463;DHT22;4268;52.506;13.462;2024-03-08T01:49:01;2.40;99.90
8463;DHT22;4268;52.506;13.462;2024-03-08T01:51:28;2.40;99.90
8463;DHT22;4268;52.506;13.462;2024-03-08T01:53:55;2.40;99.90
8463;DHT22;4268;52.506;13.462;2024-03-08T01:56:21;2.30;99.90
8463;DHT22;4268;52.506;13.462;2024-03-08T01:58:47;2.40;99.90
8463;DHT22;4268;52.506;13.462;2024-03-08T02:01:12;2.30;99.90
8463;DHT22;4268;52.506;13.462;2024-03-08T02:03:41;2.30;99.90
8463;DHT22;4268;52.506;13.462;2024-03-08T02:06:09;2.30;99.90
8463;DHT22;4268;52.506;13.462;2024-03-08T02:08:37;2.20;99.90
8463;DHT22;4268;52.506;13.462;2024-03-08T02:11:04;2.20;99.90
8463;DHT22;4268;52.506;13.462;2024-03-08T02:13:30;2.20;99.90
8463;DHT22;4268;52.506;13.462;2024-03-08T02:15:56;2.10;99.90
8463;DHT22;4268;52.506;13.462;2024-03-08T02:18:23;2.10;99.90
8463;DHT22;4268;52.506;13.462;2024-03-08T02:20:59;2.10;99.90
8463;DHT22;4268;52.506;13.462;2024-03-08T02:23:25;2.10;99.90
8463;DHT22;4268;52.506;13.462;2024-03-08T02:25:51;2.20;99.90
8463;DHT22;4268;52.506;13.462;2024-03-08T02:28:17;2.20;99.90
8463;DHT22;4268;52.506;13.462;2024-03-08T02:30:49;2.10;99.90
8463;DHT22;4268;52.506;13.462;2024-03-08T02:33:16;2.10;99.90
8463;DHT22;4268;52.506;13.462;2024-03-08T02:35:43;2.10;99.90
8463;DHT22;4268;52.506;13.462;2024-03-08T02:38:15;2.10;99.90
8463;DHT22;4268;52.506;13.462;2024-03-08T02:40:45;2.10;99.90
8463;DHT22;4268;52.506;13.462;2024-03-08T02:43:12;2.00;99.90
8463;DHT22;4268;52.506;13.462;2024-03-08T02:45:37;2.20;99.90
8463;DHT22;4268;52.506;13.462;2024-03-08T02:48:04;2.00;99.90
8463;DHT22;4268;52.506;13.462;2024-03-08T02:50:29;2.00;99.90
8463;DHT22;4268;52.506;13.462;2024-03-08T02:52:55;2.00;99.90
8463;DHT22;4268;52.506;13.462;2024-03-08T02:55:21;2.00;99.90
8463;DHT22;4268;52.506;13.462;2024-03-08T02:57:47;1.90;99.90
8463;DHT22;4268;52.506;13.462;2024-03-08T03:00:13;1.90;99.90
8463;DHT22;4268;52.506;13.462;2024-03-08T03:02:39;1.90;99.90
8463;DHT22;4268;52.506;13.462;2024-03-08T03:05:05;1.90;99.90
8463;DHT22;4268;52.506;13.462;2024-03-08T03:07:32;1.80;99.90
8463;DHT22;4268;52.506;13.462;2024-03-08T03:09:59;1.80;99.90
8463;DHT22;4268;52.506;13.462;2024-03-08T03:12:27;1.80;99.90
8463;DHT22;4268;52.506;13.462;2024-03-08T03:14:52;1.80;99.90
8463;DHT22;4268;52.506;13.462;2024-03-08T03:17:18;1.80;99.90
8463;DHT22;4268;52.506;13.462;2024-03-08T03:19:44;1.80;99.90
8463;DHT22;4268;52.506;13.462;2024-03-08T03:22:09;1.80;99.90
8463;DHT22;4268;52.506;13.462;2024-03-08T03:24:36;1.80;99.90
8463;DHT22;4268;52.506;13.462;2024-03-08T03:27:04;1.80;99.90
8463;DHT22;4268;52.506;13.462;2024-03-08T03:29:42;1.80;99.90
8463;DHT22;4268;52.506;13.462;2024-03-08T03:32:11;1.80;99.90
8463;DHT22;4268;52.506;13.462;2024-03-08T03:34:37;1.80;99.90
8463;DHT22;4268;52.506;13.462;2024-03-08T03:37:03;1.80;99.90
8463;DHT22;4268;52.506;13.462;2024-03-08T03:39:29;1.80;99.90
8463;DHT22;4268;52.506;13.462;2024-03-08T03:41:57;1.70;99.90
8463;DHT22;4268;52.506;13.462;2024-03-08T03:44:23;1.80;99.90
8463;DHT22;4268;52.506;13.462;2024-03-08T03:46:49;1.70;99.90
8463;DHT22;4268;52.506;13.462;2024-03-08T03:49:16;1.70;99.90
8463;DHT22;4268;52.506;13.462;2024-03-08T03:51:42;1.70;99.90
8463;DHT22;4268;52.506;13.462;2024-03-08T03:54:10;1.60;99.90
8463;DHT22;4268;52.506;13.462;2024-03-08T03:56:35;1.60;99.90
8463;DHT22;4268;52.506;13.462;2024-03-08T03:59:01;1.60;99.90
8463;DHT22;4268;52.506;13.462;2024-03-08T04:01:26;1.60;99.90
8463;DHT22;4268;52.506;13.462;2024-03-08T04:03:52;1.60;99.90
8463;DHT22;4268;52.506;13.462;2024-03-08T04:06:17;1.60;99.90
8463;DHT22;4268;52.506;13.462;2024-03-08T04:08:43;1.60;99.90
8463;DHT22;4268;52.506;13.462;2024-03-08T04:11:08;1.60;99.90
8463;DHT22;4268;52.506;13.462;2024-03-08T04:13:34;1.60;99.90
8463;DHT22;4268;52.506;13.462;2024-03-08T04:16:01;1.60;99.90
8463;DHT22;4268;52.506;13.462;2024-03-08T04:18:27;1.50;99.90
8463;DHT22;4268;52.506;13.462;2024-03-08T04:20:53;1.60;99.90
8463;DHT22;4268;52.506;13.462;2024-03-08T04:23:19;1.60;99.90
8463;DHT22;4268;52.506;13.462;2024-03-08T04:25:45;1.10;99.90
8463;DHT22;4268;52.506;13.462;2024-03-08T04:28:10;1.50;99.90
8463;DHT22;4268;52.506;13.462;2024-03-08T04:30:37;1.50;99.90
8463;DHT22;4268;52.506;13.462;2024-03-08T04:33:03;1.50;99.90
8463;DHT22;4268;52.506;13.462;2024-03-08T04:35:29;1.50;99.90
8463;DHT22;4268;52.506;13.462;2024-03-08T04:37:55;1.50;99.90
8463;DHT22;4268;52.506;13.462;2024-03-08T04:40:23;1.30;99.90
8463;DHT22;4268;52.506;13.462;2024-03-08T04:42:49;1.40;99.90
8463;DHT22;4268;52.506;13.462;2024-03-08T04:45:17;1.30;99.90
8463;DHT22;4268;52.506;13.462;2024-03-08T04:47:42;1.30;99.90
8463;DHT22;4268;52.506;13.462;2024-03-08T04:50:08;1.40;99.90
8463;DHT22;4268;52.506;13.462;2024-03-08T04:52:34;1.30;99.90
8463;DHT22;4268;52.506;13.462;2024-03-08T04:55:01;1.20;99.90
8463;DHT22;4268;52.506;13.462;2024-03-08T04:57:29;1.20;99.90
8463;DHT22;4268;52.506;13.462;2024-03-08T04:59:55;0.30;99.90
8463;DHT22;4268;52.506;13.462;2024-03-08T05:02:20;1.10;99.90
8463;DHT22;4268;52.506;13.462;2024-03-08T05:04:48;1.20;99.90
8463;DHT22;4268;52.506;13.462;2024-03-08T05:07:13;1.20;99.90
8463;DHT22;4268;52.506;13.462;2024-03-08T05:09:39;1.20;99.90
8463;DHT22;4268;52.506;13.462;2024-03-08T05:12:06;1.10;99.90
8463;DHT22;4268;52.506;13.462;2024-03-08T05:14:33;1.10;99.90
8463;DHT22;4268;52.506;13.462;2024-03-08T05:17:00;1.10;99.90
8463;DHT22;4268;52.506;13.462;2024-03-08T05:19:26;1.10;99.90
8463;DHT22;4268;52.506;13.462;2024-03-08T05:21:51;1.00;99.90
8463;DHT22;4268;52.506;13.462;2024-03-08T05:24:17;1.00;99.90
8463;DHT22;4268;52.506;13.462;2024-03-08T05:26:43;1.10;99.90
8463;DHT22;4268;52.506;13.462;2024-03-08T05:29:09;1.00;99.90
8463;DHT22;4268;52.506;13.462;2024-03-08T05:31:51;1.00;99.90
8463;DHT22;4268;52.506;13.462;2024-03-08T05:34:18;1.00;99.90
8463;DHT22;4268;52.506;13.462;2024-03-08T05:36:45;1.00;99.90
8463;DHT22;4268;52.506;13.462;2024-03-08T05:39:12;1.00;99.90
8463;DHT22;4268;52.506;13.462;2024-03-08T05:41:41;0.90;99.90
8463;DHT22;4268;52.506;13.462;2024-03-08T05:44:08;0.90;99.90
8463;DHT22;4268;52.506;13.462;2024-03-08T05:46:34;0.90;99.90
8463;DHT22;4268;52.506;13.462;2024-03-08T05:49:01;0.90;99.90
8463;DHT22;4268;52.506;13.462;2024-03-08T05:51:33;0.90;99.90
8463;DHT22;4268;52.506;13.462;2024-03-08T05:54:02;0.90;99.90
8463;DHT22;4268;52.506;13.462;2024-03-08T05:56:29;1.00;99.90
8463;DHT22;4268;52.506;13.462;2024-03-08T05:58:54;1.00;99.90
8463;DHT22;4268;52.506;13.462;2024-03-08T06:01:20;1.00;99.90
8463;DHT22;4268;52.506;13.462;2024-03-08T06:03:45;1.10;99.90
8463;DHT22;4268;52.506;13.462;2024-03-08T06:06:13;1.10;99.90
8463;DHT22;4268;52.506;13.462;2024-03-08T06:08:38;1.10;99.90
8463;DHT22;4268;52.506;13.462;2024-03-08T06:11:04;1.10;99.90
8463;DHT22;4268;52.506;13.462;2024-03-08T06:13:31;1.20;99.90
8463;DHT22;4268;52.506;13.462;2024-03-08T06:15:57;1.20;99.90
8463;DHT22;4268;52.506;13.462;2024-03-08T06:18:22;1.20;99.90
8463;DHT22;4268;52.506;13.462;2024-03-08T06:20:48;1.30;99.90
8463;DHT22;4268;52.506;13.462;2024-03-08T06:23:13;1.30;99.90
8463;DHT22;4268;52.506;13.462;2024-03-08T06:25:43;1.40;99.90
8463;DHT22;4268;52.506;13.462;2024-03-08T06:28:09;1.40;99.90
8463;DHT22;4268;52.506;13.462;2024-03-08T06:30:34;1.50;99.90
8463;DHT22;4268;52.506;13.462;2024-03-08T06:33:00;1.60;99.90
8463;DHT22;4268;52.506;13.462;2024-03-08T06:35:25;1.60;99.90
8463;DHT22;4268;52.506;13.462;2024-03-08T06:37:51;1.70;99.90
8463;DHT22;4268;52.506;13.462;2024-03-08T06:40:17;1.70;99.90
8463;DHT22;4268;52.506;13.462;2024-03-08T06:42:42;1.80;99.90
8463;DHT22;4268;52.506;13.462;2024-03-08T06:45:08;1.90;99.90
8463;DHT22;4268;52.506;13.462;2024-03-08T06:47:36;1.90;99.90
8463;DHT22;4268;52.506;13.462;2024-03-08T06:50:01;2.10;99.90
8463;DHT22;4268;52.506;13.462;2024-03-08T06:52:27;3.10;99.90
8463;DHT22;4268;52.506;13.462;2024-03-08T06:54:52;5.00;99.90
8463;DHT22;4268;52.506;13.462;2024-03-08T06:57:18;6.80;99.90
8463;DHT22;4268;52.506;13.462;2024-03-08T06:59:48;8.20;99.90
8463;DHT22;4268;52.506;13.462;2024-03-08T07:02:13;9.10;96.50
8463;DHT22;4268;52.506;13.462;2024-03-08T07:04:39;10.00;93.50
8463;DHT22;4268;52.506;13.462;2024-03-08T07:07:05;10.30;91.60
8463;DHT22;4268;52.506;13.462;2024-03-08T07:09:30;11.00;90.10
8463;DHT22;4268;52.506;13.462;2024-03-08T07:11:56;11.40;87.90
8463;DHT22;4268;52.506;13.462;2024-03-08T07:14:22;11.90;85.60
8463;DHT22;4268;52.506;13.462;2024-03-08T07:16:48;12.00;83.00
8463;DHT22;4268;52.506;13.462;2024-03-08T07:19:14;12.30;82.00
8463;DHT22;4268;52.506;13.462;2024-03-08T07:21:41;12.10;80.80
8463;DHT22;4268;52.506;13.462;2024-03-08T07:24:07;12.30;79.30
8463;DHT22;4268;52.506;13.462;2024-03-08T07:26:42;12.40;78.80
8463;DHT22;4268;52.506;13.462;2024-03-08T07:29:07;13.00;77.70
8463;DHT22;4268;52.506;13.462;2024-03-08T07:31:33;13.10;76.50
8463;DHT22;4268;52.506;13.462;2024-03-08T07:34:17;13.00;75.60
8463;DHT22;4268;52.506;13.462;2024-03-08T07:36:43;13.00;75.90
8463;DHT22;4268;52.506;13.462;2024-03-08T07:39:08;13.20;74.90
8463;DHT22;4268;52.506;13.462;2024-03-08T07:41:38;13.20;74.00
8463;DHT22;4268;52.506;13.462;2024-03-08T07:44:06;12.70;74.20
8463;DHT22;4268;52.506;13.462;2024-03-08T07:46:31;13.00;74.00
8463;DHT22;4268;52.506;13.462;2024-03-08T07:48:59;12.50;74.10
8463;DHT22;4268;52.506;13.462;2024-03-08T07:51:25;12.60;74.60
8463;DHT22;4268;52.506;13.462;2024-03-08T07:53:50;12.70;75.70
8463;DHT22;4268;52.506;13.462;2024-03-08T07:56:16;13.50;74.80
8463;DHT22;4268;52.506;13.462;2024-03-08T07:58:44;14.00;72.80
8463;DHT22;4268;52.506;13.462;2024-03-08T08:01:19;14.10;72.20
8463;DHT22;4268;52.506;13.462;2024-03-08T08:03:45;14.10;71.50
8463;DHT22;4268;52.506;13.462;2024-03-08T08:06:11;13.60;71.80
8463;DHT22;4268;52.506;13.462;2024-03-08T08:08:41;12.90;72.10
8463;DHT22;4268;52.506;13.462;2024-03-08T08:11:07;12.20;73.20
8463;DHT22;4268;52.506;13.462;2024-03-08T08:13:34;10.70;75.80
8463;DHT22;4268;52.506;13.462;2024-03-08T08:16:00;9.50;79.20
8463;DHT22;4268;52.506;13.462;2024-03-08T08:18:26;8.70;81.60
8463;DHT22;4268;52.506;13.462;2024-03-08T08:20:52;7.70;84.20
8463;DHT22;4268;52.506;13.462;2024-03-08T08:23:20;7.00;87.40
8463;DHT22;4268;52.506;13.462;2024-03-08T08:25:46;6.40;89.40
8463;DHT22;4268;52.506;13.462;2024-03-08T08:28:15;5.90;90.70
8463;DHT22;4268;52.506;13.462;2024-03-08T08:30:43;5.70;92.00
8463;DHT22;4268;52.506;13.462;2024-03-08T08:33:09;5.60;92.20
8463;DHT22;4268;52.506;13.462;2024-03-08T08:35:34;5.50;92.50
8463;DHT22;4268;52.506;13.462;2024-03-08T08:38:00;5.50;92.60
8463;DHT22;4268;52.506;13.462;2024-03-08T08:40:25;5.40;92.90
8463;DHT22;4268;52.506;13.462;2024-03-08T08:42:54;5.50;93.10
8463;DHT22;4268;52.506;13.462;2024-03-08T08:45:22;5.50;93.00
8463;DHT22;4268;52.506;13.462;2024-03-08T08:47:48;5.50;93.10
8463;DHT22;4268;52.506;13.462;2024-03-08T08:50:15;5.50;93.10
8463;DHT22;4268;52.506;13.462;2024-03-08T08:52:41;5.60;93.30
8463;DHT22;4268;52.506;13.462;2024-03-08T08:55:10;5.60;93.10
8463;DHT22;4268;52.506;13.462;2024-03-08T08:57:40;5.60;93.60
8463;DHT22;4268;52.506;13.462;2024-03-08T09:00:06;5.60;93.50
8463;DHT22;4268;52.506;13.462;2024-03-08T09:02:35;5.50;93.80
8463;DHT22;4268;52.506;13.462;2024-03-08T09:05:02;5.60;93.90
8463;DHT22;4268;52.506;13.462;2024-03-08T09:07:28;5.70;93.60
8463;DHT22;4268;52.506;13.462;2024-03-08T09:09:54;5.70;93.40
8463;DHT22;4268;52.506;13.462;2024-03-08T09:12:24;5.80;93.60
8463;DHT22;4268;52.506;13.462;2024-03-08T09:14:49;5.80;93.40
8463;DHT22;4268;52.506;13.462;2024-03-08T09:17:15;5.90;93.50
8463;DHT22;4268;52.506;13.462;2024-03-08T09:19:49;6.00;93.50
8463;DHT22;4268;52.506;13.462;2024-03-08T09:22:15;6.10;93.40
8463;DHT22;4268;52.506;13.462;2024-03-08T09:24:40;6.20;93.00
8463;DHT22;4268;52.506;13.462;2024-03-08T09:27:08;6.30;92.40
8463;DHT22;4268;52.506;13.462;2024-03-08T09:29:35;6.20;92.20
8463;DHT22;4268;52.506;13.462;2024-03-08T09:32:00;6.10;92.30
8463;DHT22;4268;52.506;13.462;2024-03-08T09:34:26;6.10;92.70
8463;DHT22;4268;52.506;13.462;2024-03-08T09:36:52;6.20;92.60
8463;DHT22;4268;52.506;13.462;2024-03-08T09:39:18;6.30;92.20
8463;DHT22;4268;52.506;13.462;2024-03-08T09:41:46;6.30;92.20
8463;DHT22;4268;52.506;13.462;2024-03-08T09:44:14;6.30;92.20
8463;DHT22;4268;52.506;13.462;2024-03-08T09:46:40;6.40;92.20
8463;DHT22;4268;52.506;13.462;2024-03-08T09:49:06;6.50;92.00
8463;DHT22;4268;52.506;13.462;2024-03-08T09:51:33;6.60;91.90
8463;DHT22;4268;52.506;13.462;2024-03-08T09:54:00;6.70;91.80
8463;DHT22;4268;52.506;13.462;2024-03-08T09:56:26;6.70;91.20
8463;DHT22;4268;52.506;13.462;2024-03-08T09:58:53;6.70;91.20
8463;DHT22;4268;52.506;13.462;2024-03-08T10:01:54;6.70;91.10
8463;DHT22;4268;52.506;13.462;2024-03-08T10:04:22;6.80;91.00
8463;DHT22;4268;52.506;13.462;2024-03-08T10:06:47;6.80;90.70
8463;DHT22;4268;52.506;13.462;2024-03-08T10:09:14;6.90;90.60
8463;DHT22;4268;52.506;13.462;2024-03-08T10:11:42;6.90;90.70
8463;DHT22;4268;52.506;13.462;2024-03-08T10:14:09;6.80;90.40
8463;DHT22;4268;52.506;13.462;2024-03-08T10:16:35;6.90;90.80
8463;DHT22;4268;52.506;13.462;2024-03-08T10:19:00;6.90;90.50
8463;DHT22;4268;52.506;13.462;2024-03-08T10:21:26;7.00;90.40
8463;DHT22;4268;52.506;13.462;2024-03-08T10:23:52;7.10;90.30
8463;DHT22;4268;52.506;13.462;2024-03-08T10:26:18;7.10;90.10
8463;DHT22;4268;52.506;13.462;2024-03-08T10:28:48;7.20;90.10
8463;DHT22;4268;52.506;13.462;2024-03-08T10:31:14;7.30;89.90
8463;DHT22;4268;52.506;13.462;2024-03-08T10:33:40;7.30;89.90
8463;DHT22;4268;52.506;13.462;2024-03-08T10:36:09;7.40;90.00
8463;DHT22;4268;52.506;13.462;2024-03-08T10:38:39;7.50;88.50
8463;DHT22;4268;52.506;13.462;2024-03-08T10:41:06;7.50;87.90
8463;DHT22;4268;52.506;13.462;2024-03-08T10:44:01;7.60;87.00
8463;DHT22;4268;52.506;13.462;2024-03-08T10:47:07;7.60;85.60
8463;DHT22;4268;52.506;13.462;2024-03-08T10:49:39;7.60;85.60
8463;DHT22;4268;52.506;13.462;2024-03-08T10:52:06;7.60;85.50
8463;DHT22;4268;52.506;13.462;2024-03-08T10:54:34;7.70;84.90
8463;DHT22;4268;52.506;13.462;2024-03-08T10:57:05;7.70;84.60
8463;DHT22;4268;52.506;13.462;2024-03-08T10:59:31;7.70;85.00
8463;DHT22;4268;52.506;13.462;2024-03-08T11:01:59;7.60;84.70
8463;DHT22;4268;52.506;13.462;2024-03-08T11:04:25;7.60;85.10
8463;DHT22;4268;52.506;13.462;2024-03-08T11:06:51;7.70;85.30
8463;DHT22;4268;52.506;13.462;2024-03-08T11:09:51;7.80;84.50
8463;DHT22;4268;52.506;13.462;2024-03-08T11:12:21;7.90;84.50
8463;DHT22;4268;52.506;13.462;2024-03-08T11:14:50;8.00;83.70
8463;DHT22;4268;52.506;13.462;2024-03-08T11:17:20;7.80;83.80
8463;DHT22;4268;52.506;13.462;2024-03-08T11:19:46;7.90;83.30
8463;DHT22;4268;52.506;13.462;2024-03-08T11:22:26;8.00;82.90
8463;DHT22;4268;52.506;13.462;2024-03-08T11:24:53;8.10;82.50
8463;DHT22;4268;52.506;13.462;2024-03-08T11:27:18;8.30;81.90
8463;DHT22;4268;52.506;13.462;2024-03-08T11:29:59;8.30;82.30
8463;DHT22;4268;52.506;13.462;2024-03-08T11:32:28;8.30;81.90
8463;DHT22;4268;52.506;13.462;2024-03-08T11:34:54;8.40;82.10
8463;DHT22;4268;52.506;13.462;2024-03-08T11:37:21;8.50;81.70
8463;DHT22;4268;52.506;13.462;2024-03-08T11:39:50;8.60;81.30
8463;DHT22;4268;52.506;13.462;2024-03-08T11:42:17;8.60;80.90
8463;DHT22;4268;52.506;13.462;2024-03-08T11:44:46;8.60;80.00
8463;DHT22;4268;52.506;13.462;2024-03-08T11:47:13;8.50;79.30
8463;DHT22;4268;52.506;13.462;2024-03-08T11:49:40;8.50;80.60
8463;DHT22;4268;52.506;13.462;2024-03-08T11:52:11;8.50;81.20
8463;DHT22;4268;52.506;13.462;2024-03-08T11:54:38;8.60;80.90
8463;DHT22;4268;52.506;13.462;2024-03-08T11:57:04;8.60;81.30
8463;DHT22;4268;52.506;13.462;2024-03-08T11:59:30;8.70;80.80
8463;DHT22;4268;52.506;13.462;2024-03-08T12:02:04;8.80;80.30
8463;DHT22;4268;52.506;13.462;2024-03-08T12:04:30;8.80;80.30
8463;DHT22;4268;52.506;13.462;2024-03-08T12:06:58;8.80;80.30
8463;DHT22;4268;52.506;13.462;2024-03-08T12:09:25;8.70;81.10
8463;DHT22;4268;52.506;13.462;2024-03-08T12:11:50;8.70;80.70
8463;DHT22;4268;52.506;13.462;2024-03-08T12:14:17;8.70;80.40
8463;DHT22;4268;52.506;13.462;2024-03-08T12:16:43;8.70;80.40
8463;DHT22;4268;52.506;13.462;2024-03-08T12:19:09;8.70;80.30
8463;DHT22;4268;52.506;13.462;2024-03-08T12:21:36;8.80;80.20
8463;DHT22;4268;52.506;13.462;2024-03-08T12:24:04;8.80;79.60
8463;DHT22;4268;52.506;13.462;2024-03-08T12:26:29;8.80;79.60
8463;DHT22;4268;52.506;13.462;2024-03-08T12:29:14;8.80;79.50
8463;DHT22;4268;52.506;13.462;2024-03-08T12:31:42;8.90;79.00
8463;DHT22;4268;52.506;13.462;2024-03-08T12:34:08;8.90;78.80
8463;DHT22;4268;52.506;13.462;2024-03-08T12:36:35;9.00;78.70
8463;DHT22;4268;52.506;13.462;2024-03-08T12:39:01;9.00;78.00
8463;DHT22;4268;52.506;13.462;2024-03-08T12:41:29;9.00;77.90
8463;DHT22;4268;52.506;13.462;2024-03-08T12:43:54;9.00;78.60
8463;DHT22;4268;52.506;13.462;2024-03-08T12:46:21;8.90;78.60
8463;DHT22;4268;52.506;13.462;2024-03-08T12:48:55;9.00;78.80
8463;DHT22;4268;52.506;13.462;2024-03-08T12:51:21;9.00;78.50
8463;DHT22;4268;52.506;13.462;2024-03-08T12:53:47;9.00;78.50
8463;DHT22;4268;52.506;13.462;2024-03-08T12:56:13;9.10;78.30
8463;DHT22;4268;52.506;13.462;2024-03-08T12:58:40;9.10;78.00
8463;DHT22;4268;52.506;13.462;2024-03-08T13:01:06;9.10;77.90
8463;DHT22;4268;52.506;13.462;2024-03-08T13:03:33;9.10;77.90
8463;DHT22;4268;52.506;13.462;2024-03-08T13:06:01;9.10;77.80
8463;DHT22;4268;52.506;13.462;2024-03-08T13:08:28;9.10;77.70
8463;DHT22;4268;52.506;13.462;2024-03-08T13:10:55;9.10;77.90
8463;DHT22;4268;52.506;13.462;2024-03-08T13:13:20;9.10;78.00
8463;DHT22;4268;52.506;13.462;2024-03-08T13:15:46;9.10;77.50
8463;DHT22;4268;52.506;13.462;2024-03-08T13:18:11;9.10;77.60
8463;DHT22;4268;52.506;13.462;2024-03-08T13:20:37;9.10;77.60
8463;DHT22;4268;52.506;13.462;2024-03-08T13:23:04;9.10;78.00
8463;DHT22;4268;52.506;13.462;2024-03-08T13:25:31;9.10;77.70
8463;DHT22;4268;52.506;13.462;2024-03-08T13:27:56;9.10;77.10
8463;DHT22;4268;52.506;13.462;2024-03-08T13:30:24;9.10;76.80
8463;DHT22;4268;52.506;13.462;2024-03-08T13:32:52;9.10;77.00
8463;DHT22;4268;52.506;13.462;2024-03-08T13:35:18;9.10;76.50
8463;DHT22;4268;52.506;13.462;2024-03-08T13:37:50;9.10;76.40
8463;DHT22;4268;52.506;13.462;2024-03-08T13:40:16;9.10;77.00
8463;DHT22;4268;52.506;13.462;2024-03-08T13:42:45;9.30;77.30
8463;DHT22;4268;52.506;13.462;2024-03-08T13:45:12;9.40;76.80
8463;DHT22;4268;52.506;13.462;2024-03-08T13:47:38;9.30;76.50
8463;DHT22;4268;52.506;13.462;2024-03-08T13:50:08;9.30;76.20
8463;DHT22;4268;52.506;13.462;2024-03-08T13:52:37;9.30;76.00
8463;DHT22;4268;52.506;13.462;2024-03-08T13:55:04;9.30;75.80
8463;DHT22;4268;52.506;13.462;2024-03-08T13:57:31;9.30;75.60
8463;DHT22;4268;52.506;13.462;2024-03-08T13:59:57;9.30;75.50
8463;DHT22;4268;52.506;13.462;2024-03-08T14:02:23;9.40;75.60
8463;DHT22;4268;52.506;13.462;2024-03-08T14:04:53;9.40;75.50
8463;DHT22;4268;52.506;13.462;2024-03-08T14:07:23;9.40;74.90
8463;DHT22;4268;52.506;13.462;2024-03-08T14:09:51;9.50;74.90
8463;DHT22;4268;52.506;13.462;2024-03-08T14:12:18;9.50;75.10
8463;DHT22;4268;52.506;13.462;2024-03-08T14:14:44;9.50;75.70
8463;DHT22;4268;52.506;13.462;2024-03-08T14:17:10;9.40;76.30
8463;DHT22;4268;52.506;13.462;2024-03-08T14:19:39;9.40;77.10
8463;DHT22;4268;52.506;13.462;2024-03-08T14:22:05;9.40;76.80
8463;DHT22;4268;52.506;13.462;2024-03-08T14:24:31;9.40;76.20
8463;DHT22;4268;52.506;13.462;2024-03-08T14:26:57;9.40;75.90
8463;DHT22;4268;52.506;13.462;2024-03-08T14:29:25;9.40;76.20
8463;DHT22;4268;52.506;13.462;2024-03-08T14:31:53;9.40;76.60
8463;DHT22;4268;52.506;13.462;2024-03-08T14:34:18;9.50;76.80
8463;DHT22;4268;52.506;13.462;2024-03-08T14:36:45;9.60;76.20
8463;DHT22;4268;52.506;13.462;2024-03-08T14:39:11;9.60;76.30
8463;DHT22;4268;52.506;13.462;2024-03-08T14:41:36;9.60;76.40
8463;DHT22;4268;52.506;13.462;2024-03-08T14:44:02;9.50;75.70
8463;DHT22;4268;52.506;13.462;2024-03-08T14:46:27;9.40;76.00
8463;DHT22;4268;52.506;13.462;2024-03-08T14:48:53;9.40;76.60
8463;DHT22;4268;52.506;13.462;2024-03-08T14:51:19;9.40;76.60
8463;DHT22;4268;52.506;13.462;2024-03-08T14:53:52;9.40;76.10
8463;DHT22;4268;52.506;13.462;2024-03-08T14:56:17;9.40;75.50
8463;DHT22;4268;52.506;13.462;2024-03-08T14:58:44;9.30;74.70
8463;DHT22;4268;52.506;13.462;2024-03-08T15:01:10;9.40;74.60
8463;DHT22;4268;52.506;13.462;2024-03-08T15:03:39;9.40;73.50
8463;DHT22;4268;52.506;13.462;2024-03-08T15:06:05;9.40;73.80
8463;DHT22;4268;52.506;13.462;2024-03-08T15:08:36;9.40;72.60
8463;DHT22;4268;52.506;13.462;2024-03-08T15:11:01;9.30;72.60
8463;DHT22;4268;52.506;13.462;2024-03-08T15:13:27;9.30;72.60
8463;DHT22;4268;52.506;13.462;2024-03-08T15:16:07;9.30;72.60
8463;DHT22;4268;52.506;13.462;2024-03-08T15:18:34;9.20;72.70
8463;DHT22;4268;52.506;13.462;2024-03-08T15:21:00;9.20;73.30
8463;DHT22;4268;52.506;13.462;2024-03-08T15:23:26;9.20;73.30
8463;DHT22;4268;52.506;13.462;2024-03-08T15:25:51;9.20;73.10
8463;DHT22;4268;52.506;13.462;2024-03-08T15:28:17;9.20;73.30
8463;DHT22;4268;52.506;13.462;2024-03-08T15:30:46;9.20;73.40
8463;DHT22;4268;52.506;13.462;2024-03-08T15:33:13;9.20;73.60
8463;DHT22;4268;52.506;13.462;2024-03-08T15:35:41;9.20;73.80
8463;DHT22;4268;52.506;13.462;2024-03-08T15:38:06;9.10;74.00
8463;DHT22;4268;52.506;13.462;2024-03-08T15:40:33;9.20;74.40
8463;DHT22;4268;52.506;13.462;2024-03-08T15:43:00;9.10;74.10
8463;DHT22;4268;52.506;13.462;2024-03-08T15:45:26;9.10;74.50
8463;DHT22;4268;52.506;13.462;2024-03-08T15:48:02;9.10;74.50
8463;DHT22;4268;52.506;13.462;2024-03-08T15:50:30;9.00;74.80
8463;DHT22;4268;52.506;13.462;2024-03-08T15:52:57;9.00;75.00
8463;DHT22;4268;52.506;13.462;2024-03-08T15:55:22;8.90;75.20
8463;DHT22;4268;52.506;13.462;2024-03-08T15:57:53;8.90;75.50
8463;DHT22;4268;52.506;13.462;2024-03-08T16:00:22;8.90;75.80